Aviation Digital Data Service (ADDS)

Output produced by METARs form (2230 UTC 30 March 2017)
found at http://www.aviationweather.gov/adds/metars/
 
KWJF 301734Z 3018/3118 27025G35KT P6SM SCT250 
     FM302000 27035G45KT P6SM SCT250 
     FM302200 27045G55KT 1/2SM BLDU SCT001 
     FM310300 29028G38KT P6SM SKC 
     FM310700 30020G30KT P6SM SKC 
     FM311300 28014KT P6SM SKC
       
KWMC 301720Z 3018/3118 32020G30KT 3SM -SN SCT008 BKN045 
     FM302100 33025G35KT 1 1/2SM -SN BR BKN015 
     FM310100 33015G25KT P6SM VCSH SCT025 BKN040 
     FM311300 32015G25KT P6SM SCT040 BKN060
       
TAF KWRB 302100Z 3021/0103 20012KT 9999 BKN055 BKN110 OVC240 QNH2978INS 
     TEMPO 3021/3023 21015G20KT 
     BECMG 3107/3108 20009KT 9000 -SHRA VCTS SCT012 OVC015CB QNH2976INS 
     TEMPO 3108/3112 22015G25KT 4800 -TSRA BR OVC009CB 
     BECMG 3112/3113 25015G20KT 9999 NSW SCT030 SCT055 QNH2978INS 
     BECMG 3122/3123 29009KT 9999 FEW050 QNH2981INS 
     BECMG 0100/0101 31005KT 9999 SKC QNH2985INS TX29/3021Z TN15/3111Z
       
TAF KWRI 301800Z 3018/3124 VRB06KT 9999 SCT060 BKN100 QNH3013INS 
     BECMG 3103/3104 14009KT 9999 BKN050 OVC060 QNH3005INS 
     BECMG 3111/3112 11012KT 8000 -RA BKN020 OVC030 QNH2992INS 
     BECMG 3116/3117 12012G18KT 4800 -SHRA OVC010 WS020/14038KT QNH2977INS 
     BECMG 3120/3121 10012G20KT 3200 SHRA BKN006 OVC010 WS020/14041KT QNH2968INS TX11/3020Z TN06/3104Z
       
KWRL 301743Z 3018/3118 VRB04KT P6SM VCSH SCT040 OVC080 
     FM302100 35010KT P6SM SCT070 BKN100 
     FM310600 33018G28KT P6SM VCSH SCT030 BKN040 
     FM311400 33016G26KT P6SM -RA OVC040